createdAt,value
2022-10-30T00:00:24.208Z,12.73
2022-10-30T00:02:51.111Z,12.40
2022-10-30T00:05:18.734Z,11.97
2022-10-30T00:07:45.862Z,11.17
2022-10-30T00:10:12.614Z,11.83
2022-10-30T00:12:39.441Z,11.87
2022-10-30T00:15:06.685Z,10.67
2022-10-30T00:17:33.718Z,10.60
2022-10-30T00:20:00.600Z,10.77
2022-10-30T00:22:27.343Z,9.13
2022-10-30T00:24:54.104Z,10.60
2022-10-30T00:27:21.132Z,10.00
2022-10-30T00:29:47.876Z,9.87
2022-10-30T00:32:14.752Z,10.33
2022-10-30T00:34:43.369Z,10.13
2022-10-30T00:37:10.303Z,10.77
2022-10-30T00:39:39.889Z,10.27
2022-10-30T00:42:11.216Z,10.30
2022-10-30T00:44:41.172Z,11.07
2022-10-30T00:47:12.478Z,11.17
2022-10-30T00:49:44.499Z,10.97
2022-10-30T00:52:11.335Z,11.63
2022-10-30T00:54:38.133Z,11.80
2022-10-30T00:57:07.798Z,12.07
2022-10-30T00:59:36.008Z,10.73
2022-10-30T01:02:04.613Z,10.87
2022-10-30T01:04:33.383Z,10.10
2022-10-30T01:07:05.797Z,11.27
2022-10-30T01:09:32.749Z,10.83
2022-10-30T01:11:59.813Z,10.83
2022-10-30T01:14:26.745Z,10.37
2022-10-30T01:17:32.423Z,10.17
2022-10-30T01:20:18.016Z,10.43
2022-10-30T01:22:57.304Z,10.60
2022-10-30T01:25:30.664Z,9.47
2022-10-30T01:28:14.053Z,9.73
2022-10-30T01:31:00.989Z,9.70
2022-10-30T01:33:42.891Z,9.93
2022-10-30T01:36:12.555Z,9.47
2022-10-30T01:38:43.754Z,9.47
2022-10-30T01:41:10.738Z,9.73
2022-10-30T01:43:38.185Z,10.07
2022-10-30T01:46:07.362Z,12.00
2022-10-30T01:48:54.461Z,10.73
2022-10-30T01:51:39.805Z,12.37
2022-10-30T01:54:12.877Z,11.10
2022-10-30T01:56:45.366Z,10.80
2022-10-30T01:59:18.553Z,11.50
2022-10-30T02:01:46.008Z,11.23
2022-10-30T02:04:13.657Z,11.27
2022-10-30T02:06:40.742Z,12.60
2022-10-30T02:09:08.922Z,12.67
2022-10-30T02:11:40.192Z,11.70
2022-10-30T02:14:07.846Z,11.27
2022-10-30T02:16:35.471Z,12.27
2022-10-30T02:19:03.514Z,10.80
2022-10-30T02:21:30.700Z,11.67
2022-10-30T02:23:57.499Z,11.47
2022-10-30T02:26:25.486Z,12.77
2022-10-30T02:28:52.236Z,13.37
2022-10-30T02:31:19.542Z,11.80
2022-10-30T02:33:46.832Z,13.80
2022-10-30T02:36:15.721Z,12.60
2022-10-30T02:38:43.374Z,11.03
2022-10-30T02:41:11.038Z,10.97
2022-10-30T02:43:38.272Z,10.47
2022-10-30T02:46:06.088Z,10.90
2022-10-30T02:48:33.729Z,9.17
2022-10-30T02:51:01.437Z,12.70
2022-10-30T02:53:29.749Z,12.30
2022-10-30T02:55:56.895Z,11.10
2022-10-30T02:58:23.709Z,11.27
2022-10-30T03:00:50.516Z,11.27
2022-10-30T03:03:20.062Z,10.57
2022-10-30T03:05:50.013Z,10.47
2022-10-30T03:08:16.808Z,10.70
2022-10-30T03:10:43.811Z,11.40
2022-10-30T03:13:10.575Z,10.97
2022-10-30T03:15:37.445Z,9.77
2022-10-30T03:18:05.838Z,10.03
2022-10-30T03:20:35.787Z,9.37
2022-10-30T03:23:02.559Z,10.47
2022-10-30T03:25:29.435Z,10.20
2022-10-30T03:27:58.508Z,11.10
2022-10-30T03:30:25.823Z,11.63
2022-10-30T03:32:52.803Z,11.37
2022-10-30T03:35:20.568Z,10.87
2022-10-30T03:37:47.370Z,11.03
2022-10-30T03:40:14.234Z,12.07
2022-10-30T03:42:41.553Z,11.13
2022-10-30T03:45:09.181Z,12.27
2022-10-30T03:47:36.002Z,12.63
2022-10-30T03:50:03.223Z,12.37
2022-10-30T03:52:30.172Z,12.70
2022-10-30T03:54:57.619Z,11.77
2022-10-30T03:57:24.473Z,11.90
2022-10-30T04:00:07.301Z,11.93
2022-10-30T04:02:54.950Z,12.27
2022-10-30T04:05:24.557Z,12.30
2022-10-30T04:08:00.385Z,11.20
2022-10-30T04:10:29.685Z,11.60
2022-10-30T04:13:02.848Z,11.77
2022-10-30T04:15:30.275Z,12.27
2022-10-30T04:17:57.713Z,11.20
2022-10-30T04:20:25.861Z,12.70
2022-10-30T04:22:56.389Z,10.73
2022-10-30T04:25:23.823Z,13.37
2022-10-30T04:27:53.182Z,12.30
2022-10-30T04:30:21.534Z,10.20
2022-10-30T04:32:49.000Z,11.30
2022-10-30T04:35:17.233Z,11.40
2022-10-30T04:37:52.222Z,11.17
2022-10-30T04:40:19.059Z,11.97
2022-10-30T04:42:53.157Z,12.47
2022-10-30T04:45:20.348Z,12.60
2022-10-30T04:47:48.381Z,11.10
2022-10-30T04:50:16.640Z,10.90
2022-10-30T04:52:43.409Z,11.33
2022-10-30T04:55:10.872Z,10.57
2022-10-30T04:57:38.258Z,10.77
2022-10-30T05:00:06.926Z,11.63
2022-10-30T05:02:37.270Z,10.93
2022-10-30T05:05:04.588Z,10.53
2022-10-30T05:07:31.705Z,12.17
2022-10-30T05:09:58.623Z,12.60
2022-10-30T05:12:25.667Z,13.60
2022-10-30T05:14:54.390Z,11.67
2022-10-30T05:17:21.811Z,12.27
2022-10-30T05:19:50.582Z,10.97
2022-10-30T05:22:17.339Z,10.70
2022-10-30T05:24:44.220Z,10.50
2022-10-30T05:27:10.980Z,11.10
2022-10-30T05:29:37.795Z,12.17
2022-10-30T05:32:04.812Z,11.73
2022-10-30T05:34:43.337Z,12.00
2022-10-30T05:37:11.377Z,11.57
2022-10-30T05:39:38.207Z,12.73
2022-10-30T05:42:13.942Z,12.87
2022-10-30T05:47:34.699Z,13.53
2022-10-30T05:50:02.064Z,12.40
2022-10-30T05:52:29.402Z,11.13
2022-10-30T05:54:57.808Z,11.43
2022-10-30T05:57:35.978Z,12.03
2022-10-30T06:00:02.903Z,12.37
2022-10-30T06:02:31.201Z,13.03
2022-10-30T06:04:58.119Z,11.87
2022-10-30T06:07:25.086Z,10.53
2022-10-30T06:09:52.344Z,10.97
2022-10-30T06:12:34.333Z,11.53
2022-10-30T06:15:12.941Z,11.67
2022-10-30T06:17:39.795Z,10.73
2022-10-30T06:20:22.609Z,12.50
2022-10-30T06:22:55.250Z,12.97
2022-10-30T06:25:25.150Z,11.90
2022-10-30T06:28:10.830Z,13.20
2022-10-30T06:30:38.076Z,12.23
2022-10-30T06:33:06.740Z,13.37
2022-10-30T06:35:35.491Z,11.53
2022-10-30T06:38:02.396Z,11.57
2022-10-30T06:40:31.384Z,11.50
2022-10-30T06:43:16.793Z,11.20
2022-10-30T06:45:50.105Z,11.90
2022-10-30T06:48:19.019Z,11.47
2022-10-30T06:50:56.299Z,11.23
2022-10-30T06:53:24.297Z,12.20
2022-10-30T06:55:58.985Z,10.70
2022-10-30T06:59:01.474Z,10.97
2022-10-30T07:01:37.521Z,11.07
2022-10-30T07:04:36.424Z,11.70
2022-10-30T07:07:04.173Z,11.13
2022-10-30T07:09:31.036Z,11.37
2022-10-30T07:12:04.111Z,11.83
2022-10-30T07:14:56.296Z,10.93
2022-10-30T07:17:34.805Z,11.53
2022-10-30T07:20:08.434Z,11.43
2022-10-30T07:22:38.367Z,11.43
2022-10-30T07:25:05.410Z,11.80
2022-10-30T07:27:52.557Z,11.23
2022-10-30T07:30:39.821Z,11.20
2022-10-30T07:33:27.441Z,12.80
2022-10-30T07:36:15.211Z,11.50
2022-10-30T07:39:05.656Z,11.53
2022-10-30T07:41:40.383Z,11.23
2022-10-30T07:44:26.016Z,11.40
2022-10-30T07:47:10.175Z,10.50
2022-10-30T07:49:55.811Z,11.33
2022-10-30T07:52:23.054Z,11.20
2022-10-30T07:54:51.682Z,11.67
2022-10-30T07:57:40.222Z,10.07
2022-10-30T08:00:22.401Z,11.20
2022-10-30T08:02:59.061Z,10.03
2022-10-30T08:05:43.612Z,10.67
2022-10-30T08:08:19.867Z,10.27
2022-10-30T08:10:52.810Z,10.87
2022-10-30T08:13:19.760Z,10.10
2022-10-30T08:15:46.510Z,10.20
2022-10-30T08:18:13.745Z,9.80
2022-10-30T08:20:43.021Z,9.23
2022-10-30T08:23:10.747Z,10.00
2022-10-30T08:25:37.626Z,10.50
2022-10-30T08:28:06.094Z,9.90
2022-10-30T08:30:37.780Z,9.03
2022-10-30T08:33:07.620Z,9.37
2022-10-30T08:36:07.626Z,9.83
2022-10-30T08:38:34.566Z,9.27
2022-10-30T08:41:21.705Z,9.43
2022-10-30T08:43:51.598Z,8.53
2022-10-30T08:46:18.581Z,9.60
2022-10-30T08:48:46.071Z,8.20
2022-10-30T08:51:13.078Z,8.93
2022-10-30T08:53:45.188Z,9.37
2022-10-30T08:56:14.773Z,8.30
2022-10-30T08:58:57.827Z,8.60
2022-10-30T09:01:24.900Z,8.13
2022-10-30T09:04:11.963Z,8.63
2022-10-30T09:06:44.719Z,7.90
2022-10-30T09:09:37.805Z,8.80
2022-10-30T09:12:05.777Z,8.20
2022-10-30T09:14:39.524Z,9.10
2022-10-30T09:17:08.699Z,9.30
2022-10-30T09:19:36.900Z,8.27
2022-10-30T09:22:04.749Z,7.97
2022-10-30T09:24:33.380Z,9.27
2022-10-30T09:27:02.972Z,8.50
2022-10-30T09:29:36.176Z,6.90
2022-10-30T09:32:10.212Z,8.10
2022-10-30T09:35:09.516Z,7.13
2022-10-30T09:37:41.364Z,7.50
2022-10-30T09:40:23.982Z,7.63
2022-10-30T09:42:52.282Z,7.40
2022-10-30T09:45:37.571Z,6.93
2022-10-30T09:48:26.715Z,6.90
2022-10-30T09:51:23.947Z,7.33
2022-10-30T09:53:51.029Z,7.00
2022-10-30T09:56:31.986Z,7.47
2022-10-30T09:59:15.856Z,6.37
2022-10-30T10:02:09.745Z,6.40
2022-10-30T10:04:41.898Z,6.67
2022-10-30T10:07:23.008Z,6.63
2022-10-30T10:10:03.796Z,6.50
2022-10-30T10:12:51.221Z,5.93
2022-10-30T10:15:29.992Z,6.50
2022-10-30T10:17:58.595Z,7.07
2022-10-30T10:20:41.580Z,5.67
2022-10-30T10:23:17.511Z,6.17
2022-10-30T10:25:50.984Z,5.80
2022-10-30T10:28:35.763Z,6.27
2022-10-30T10:31:20.377Z,6.07
2022-10-30T10:33:57.883Z,5.23
2022-10-30T10:36:45.126Z,5.73
2022-10-30T10:39:12.039Z,6.20
2022-10-30T10:41:38.767Z,5.77
2022-10-30T10:44:05.618Z,6.03
2022-10-30T10:46:41.781Z,5.87
2022-10-30T10:49:08.599Z,5.90
2022-10-30T10:51:41.300Z,6.23
2022-10-30T10:54:14.401Z,5.63
2022-10-30T10:56:42.636Z,6.07
2022-10-30T10:59:23.503Z,6.40
2022-10-30T11:01:55.981Z,6.43
2022-10-30T11:04:36.435Z,6.30
2022-10-30T11:07:11.985Z,5.90
2022-10-30T11:09:40.134Z,5.80
2022-10-30T11:12:07.065Z,5.80
2022-10-30T11:14:33.823Z,8.17
2022-10-30T11:17:05.707Z,6.53
2022-10-30T11:19:32.768Z,6.17
2022-10-30T11:22:00.418Z,6.97
2022-10-30T11:24:36.628Z,6.47
2022-10-30T11:27:25.817Z,6.47
2022-10-30T11:29:54.018Z,6.10
2022-10-30T11:32:23.065Z,5.30
2022-10-30T11:35:11.356Z,6.57
2022-10-30T11:37:39.928Z,5.60
2022-10-30T11:40:12.869Z,6.10
2022-10-30T11:42:44.098Z,5.63
2022-10-30T11:45:15.862Z,6.03
2022-10-30T11:47:43.295Z,5.70
2022-10-30T11:50:23.825Z,6.27
2022-10-30T11:52:55.795Z,5.57
2022-10-30T11:55:22.646Z,5.73
2022-10-30T11:57:51.403Z,5.90
2022-10-30T12:00:26.631Z,7.20
2022-10-30T12:02:57.937Z,5.83
2022-10-30T12:05:28.197Z,5.43
2022-10-30T12:08:11.108Z,5.67
2022-10-30T12:10:53.300Z,5.60
2022-10-30T12:13:21.904Z,5.53
2022-10-30T12:15:50.135Z,5.77
2022-10-30T12:20:57.077Z,5.10
2022-10-30T12:23:26.029Z,6.23
2022-10-30T12:25:54.423Z,7.00
2022-10-30T12:28:22.472Z,6.13
2022-10-30T12:30:52.336Z,6.30
2022-10-30T12:33:24.669Z,6.33
2022-10-30T12:35:56.049Z,5.90
2022-10-30T12:38:22.895Z,6.30
2022-10-30T12:41:09.942Z,6.13
2022-10-30T12:43:36.814Z,5.53
2022-10-30T12:46:36.156Z,6.20
2022-10-30T12:49:23.309Z,6.10
2022-10-30T12:51:52.996Z,6.53
2022-10-30T12:54:37.946Z,6.17
2022-10-30T12:57:07.524Z,5.60
2022-10-30T13:00:03.989Z,6.10
2022-10-30T13:02:30.909Z,5.97
2022-10-30T13:05:06.347Z,6.10
2022-10-30T13:07:38.917Z,6.43
2022-10-30T13:10:13.090Z,5.70
2022-10-30T13:12:42.053Z,5.73
2022-10-30T13:15:27.576Z,5.93
2022-10-30T13:17:56.370Z,5.87
2022-10-30T13:20:23.558Z,6.67
2022-10-30T13:23:10.631Z,6.43
2022-10-30T13:25:52.831Z,6.30
2022-10-30T13:28:25.884Z,5.77
2022-10-30T13:31:02.193Z,7.20
2022-10-30T13:33:49.370Z,6.27
2022-10-30T13:36:27.422Z,6.93
2022-10-30T13:38:54.262Z,5.93
2022-10-30T13:41:39.820Z,6.50
2022-10-30T13:44:09.750Z,6.67
2022-10-30T13:46:39.432Z,5.73
2022-10-30T13:49:24.693Z,6.67
2022-10-30T13:51:56.163Z,6.90
2022-10-30T13:54:28.354Z,7.57
2022-10-30T13:56:55.885Z,7.20
2022-10-30T13:59:22.608Z,7.70
2022-10-30T14:01:56.382Z,7.80
2022-10-30T14:04:46.258Z,7.03
2022-10-30T14:07:19.106Z,7.80
2022-10-30T14:09:54.555Z,8.37
2022-10-30T14:12:39.980Z,8.13
2022-10-30T14:15:07.101Z,8.27
2022-10-30T14:17:33.882Z,8.50
2022-10-30T14:20:13.360Z,7.83
2022-10-30T14:22:41.309Z,8.33
2022-10-30T14:25:15.206Z,8.47
2022-10-30T14:27:42.144Z,9.00
2022-10-30T14:30:20.078Z,8.37
2022-10-30T14:32:53.397Z,8.70
2022-10-30T14:35:39.231Z,8.80
2022-10-30T14:38:09.061Z,8.67
2022-10-30T14:40:47.664Z,8.97
2022-10-30T14:43:20.227Z,9.47
2022-10-30T14:46:01.243Z,9.83
2022-10-30T14:48:47.128Z,8.20
2022-10-30T14:51:34.206Z,8.77
2022-10-30T14:54:17.965Z,11.10
2022-10-30T14:56:48.643Z,11.50
2022-10-30T14:59:15.490Z,10.10
2022-10-30T15:01:42.323Z,9.23
2022-10-30T15:04:19.733Z,9.10
2022-10-30T15:07:05.345Z,8.97
2022-10-30T15:09:32.189Z,9.23
2022-10-30T15:12:17.823Z,9.03
2022-10-30T15:14:53.891Z,9.63
2022-10-30T15:17:24.361Z,8.80
2022-10-30T15:19:51.185Z,8.60
2022-10-30T15:22:19.422Z,8.50
2022-10-30T15:24:46.625Z,9.17
2022-10-30T15:27:17.640Z,8.73
2022-10-30T15:29:49.072Z,8.70
2022-10-30T15:32:17.473Z,9.20
2022-10-30T15:35:13.297Z,8.83
2022-10-30T15:37:40.206Z,9.37
2022-10-30T15:40:15.776Z,9.23
2022-10-30T15:42:42.922Z,10.13
2022-10-30T15:45:20.129Z,8.67
2022-10-30T15:47:48.546Z,8.87
2022-10-30T15:50:15.921Z,8.30
2022-10-30T15:52:43.174Z,9.23
2022-10-30T15:55:13.328Z,8.10
2022-10-30T16:00:33.634Z,9.80
2022-10-30T16:03:00.725Z,9.20
2022-10-30T16:05:28.028Z,9.43
2022-10-30T16:07:59.393Z,9.23
2022-10-30T16:10:27.803Z,9.73
2022-10-30T16:12:57.376Z,9.40
2022-10-30T16:15:31.596Z,9.40
2022-10-30T16:18:04.775Z,10.40
2022-10-30T16:20:31.883Z,9.23
2022-10-30T16:22:59.767Z,10.83
2022-10-30T16:25:26.640Z,10.20
2022-10-30T16:27:53.437Z,12.43
2022-10-30T16:30:20.290Z,11.37
2022-10-30T16:32:52.661Z,10.90
2022-10-30T16:35:21.466Z,10.97
2022-10-30T16:37:48.832Z,11.30
2022-10-30T16:40:17.502Z,10.47
2022-10-30T16:42:50.539Z,11.03
2022-10-30T16:45:37.292Z,11.57
2022-10-30T16:48:15.240Z,11.07
2022-10-30T16:50:42.157Z,10.00
2022-10-30T16:53:15.702Z,12.30
2022-10-30T16:55:42.535Z,12.43
2022-10-30T16:58:11.818Z,15.27
2022-10-30T17:00:40.418Z,13.07
2022-10-30T17:03:09.269Z,15.20
2022-10-30T17:05:37.218Z,12.93
2022-10-30T17:08:05.649Z,13.90
2022-10-30T17:10:34.480Z,12.70
2022-10-30T17:13:19.785Z,13.13
2022-10-30T17:15:47.198Z,13.90
2022-10-30T17:18:16.733Z,13.37
2022-10-30T17:20:43.926Z,14.80
2022-10-30T17:23:15.625Z,14.83
2022-10-30T17:25:42.564Z,14.60
2022-10-30T17:28:28.866Z,14.00
2022-10-30T17:30:56.145Z,15.60
2022-10-30T17:33:23.255Z,14.40
2022-10-30T17:35:50.724Z,14.73
2022-10-30T17:38:17.744Z,13.97
2022-10-30T17:40:44.715Z,13.43
2022-10-30T17:43:14.822Z,16.07
2022-10-30T17:45:42.231Z,16.03
2022-10-30T17:48:15.996Z,18.57
2022-10-30T17:50:43.165Z,17.97
2022-10-30T17:53:16.909Z,18.30
2022-10-30T17:55:44.629Z,16.23
2022-10-30T17:58:11.533Z,17.97
2022-10-30T18:00:38.556Z,15.40
2022-10-30T18:03:05.398Z,41.43
2022-10-30T18:05:33.898Z,25.03
2022-10-30T18:08:00.851Z,16.83
2022-10-30T18:10:27.678Z,11.63
2022-10-30T18:12:54.645Z,14.90
2022-10-30T18:15:27.281Z,14.70
2022-10-30T18:17:54.543Z,15.70
2022-10-30T18:20:21.688Z,16.50
2022-10-30T18:22:48.756Z,17.60
2022-10-30T18:25:22.353Z,16.67
2022-10-30T18:27:49.275Z,17.83
2022-10-30T18:30:16.192Z,20.73
2022-10-30T18:32:43.172Z,17.53
2022-10-30T18:35:15.909Z,17.70
2022-10-30T18:37:42.747Z,18.53
2022-10-30T18:40:09.940Z,15.60
2022-10-30T18:42:37.026Z,16.23
2022-10-30T18:45:11.344Z,17.47
2022-10-30T18:47:38.299Z,18.93
2022-10-30T18:50:05.245Z,32.13
2022-10-30T18:52:32.102Z,16.20
2022-10-30T18:54:59.508Z,25.90
2022-10-30T18:57:26.276Z,17.00
2022-10-30T18:59:53.758Z,15.97
2022-10-30T19:02:23.316Z,18.63
2022-10-30T19:04:50.224Z,19.00
2022-10-30T19:07:17.683Z,26.90
2022-10-30T19:09:45.231Z,19.13
2022-10-30T19:12:12.510Z,16.70
2022-10-30T19:14:39.391Z,16.37
2022-10-30T19:17:06.549Z,19.10
2022-10-30T19:19:33.655Z,19.30
2022-10-30T19:22:00.547Z,20.10
2022-10-30T19:24:27.765Z,21.47
2022-10-30T19:26:54.695Z,19.40
2022-10-30T19:29:21.892Z,26.80
2022-10-30T19:31:49.852Z,24.77
2022-10-30T19:34:17.036Z,23.17
2022-10-30T19:36:44.311Z,26.60
2022-10-30T19:39:17.079Z,29.80
2022-10-30T19:41:44.658Z,22.37
2022-10-30T19:44:11.995Z,18.70
2022-10-30T19:46:39.015Z,21.80
2022-10-30T19:49:19.611Z,20.23
2022-10-30T19:51:47.027Z,20.57
2022-10-30T19:54:14.604Z,22.57
2022-10-30T19:56:44.322Z,19.27
2022-10-30T19:59:13.541Z,22.67
2022-10-30T20:01:41.875Z,21.10
2022-10-30T20:04:09.535Z,21.50
2022-10-30T20:06:36.672Z,18.50
2022-10-30T20:09:05.754Z,15.60
2022-10-30T20:11:33.231Z,15.23
2022-10-30T20:14:00.761Z,14.93
2022-10-30T20:16:28.101Z,16.90
2022-10-30T20:18:55.055Z,16.57
2022-10-30T20:21:22.152Z,16.10
2022-10-30T20:23:49.250Z,14.30
2022-10-30T20:26:23.272Z,16.77
2022-10-30T20:28:50.893Z,17.33
2022-10-30T20:31:18.472Z,16.40
2022-10-30T20:33:45.749Z,17.43
2022-10-30T20:36:15.921Z,17.77
2022-10-30T20:38:43.246Z,15.80
2022-10-30T20:41:23.978Z,15.67
2022-10-30T20:43:51.522Z,15.43
2022-10-30T20:46:18.813Z,15.20
2022-10-30T20:48:46.734Z,14.67
2022-10-30T20:51:14.018Z,15.10
2022-10-30T20:53:41.220Z,14.10
2022-10-30T20:56:08.870Z,14.27
2022-10-30T20:58:36.386Z,13.93
2022-10-30T21:01:03.306Z,14.67
2022-10-30T21:03:31.073Z,15.27
2022-10-30T21:05:59.997Z,15.73
2022-10-30T21:08:28.303Z,15.37
2022-10-30T21:10:59.358Z,15.17
2022-10-30T21:13:26.844Z,13.67
2022-10-30T21:15:54.311Z,15.17
2022-10-30T21:18:21.168Z,15.07
2022-10-30T21:20:48.029Z,15.47
2022-10-30T21:23:14.891Z,15.17
2022-10-30T21:25:41.700Z,14.47
2022-10-30T21:28:08.584Z,14.43
2022-10-30T21:30:35.369Z,15.23
2022-10-30T21:33:02.621Z,14.67
2022-10-30T21:35:29.771Z,14.33
2022-10-30T21:37:56.569Z,14.73
2022-10-30T21:40:23.540Z,15.20
2022-10-30T21:42:50.298Z,15.93
2022-10-30T21:45:17.179Z,14.83
2022-10-30T21:47:43.991Z,14.97
2022-10-30T21:50:12.894Z,15.23
2022-10-30T21:52:40.520Z,15.07
2022-10-30T21:55:07.588Z,16.20
2022-10-30T21:57:34.615Z,15.27
2022-10-30T22:00:05.500Z,16.17
2022-10-30T22:02:35.543Z,14.30
2022-10-30T22:05:02.379Z,13.67
2022-10-30T22:07:29.255Z,12.67
2022-10-30T22:09:56.148Z,13.70
2022-10-30T22:12:22.905Z,13.07
2022-10-30T22:14:49.841Z,15.10
2022-10-30T22:17:16.753Z,14.23
2022-10-30T22:19:43.654Z,14.50
2022-10-30T22:22:11.355Z,15.30
2022-10-30T22:24:38.380Z,16.60
2022-10-30T22:27:05.190Z,14.90
2022-10-30T22:29:32.234Z,16.07
2022-10-30T22:31:58.981Z,16.50
2022-10-30T22:34:25.784Z,16.00
2022-10-30T22:36:52.843Z,15.30
2022-10-30T22:39:19.824Z,16.20
2022-10-30T22:41:46.716Z,15.70
2022-10-30T22:44:14.965Z,15.00
2022-10-30T22:46:42.085Z,15.00
2022-10-30T22:49:09.139Z,15.30
2022-10-30T22:51:36.833Z,15.90
2022-10-30T22:54:04.567Z,15.70
2022-10-30T22:56:32.448Z,16.23
2022-10-30T22:59:06.502Z,14.90
2022-10-30T23:01:34.899Z,14.57
2022-10-30T23:04:03.122Z,14.77
2022-10-30T23:06:30.556Z,13.57
2022-10-30T23:08:58.491Z,11.33
2022-10-30T23:11:25.715Z,11.73
2022-10-30T23:13:52.595Z,12.13
2022-10-30T23:16:20.795Z,11.50
2022-10-30T23:18:47.697Z,11.40
2022-10-30T23:21:21.573Z,10.80
2022-10-30T23:23:48.881Z,11.33
2022-10-30T23:26:17.595Z,13.07
2022-10-30T23:28:44.882Z,13.27
2022-10-30T23:31:19.770Z,14.03
2022-10-30T23:33:50.445Z,11.40
2022-10-30T23:36:17.847Z,15.83
2022-10-30T23:38:44.765Z,12.23
2022-10-30T23:41:11.661Z,14.97
2022-10-30T23:43:38.405Z,13.40
2022-10-30T23:46:05.385Z,15.23
2022-10-30T23:48:32.207Z,12.77
2022-10-30T23:50:59.009Z,14.43
2022-10-30T23:53:26.168Z,13.33
2022-10-30T23:55:53.563Z,12.87
2022-10-30T23:58:20.763Z,14.83
